sensor_id;sensor_type;location;lat;lon;timestamp;P1;durP1;ratioP1;P2;durP2;ratioP2
75129;SDS011;63703;44.716;37.846;2023-02-01T00:02:00;16.27;;;6.25;;
75129;SDS011;63703;44.716;37.846;2023-02-01T00:04:27;12.18;;;6.32;;
75129;SDS011;63703;44.716;37.846;2023-02-01T00:06:53;17.92;;;6.20;;
75129;SDS011;63703;44.716;37.846;2023-02-01T00:09:19;17.02;;;7.93;;
75129;SDS011;63703;44.716;37.846;2023-02-01T00:11:45;19.92;;;5.85;;
75129;SDS011;63703;44.716;37.846;2023-02-01T00:14:11;14.98;;;5.97;;
75129;SDS011;63703;44.716;37.846;2023-02-01T00:16:37;14.60;;;7.03;;
75129;SDS011;63703;44.716;37.846;2023-02-01T00:19:04;15.70;;;6.93;;
75129;SDS011;63703;44.716;37.846;2023-02-01T00:21:32;11.65;;;6.50;;
75129;SDS011;63703;44.716;37.846;2023-02-01T00:23:58;12.30;;;6.10;;
75129;SDS011;63703;44.716;37.846;2023-02-01T00:26:35;16.58;;;8.10;;
75129;SDS011;63703;44.716;37.846;2023-02-01T00:29:04;15.35;;;6.07;;
75129;SDS011;63703;44.716;37.846;2023-02-01T00:31:38;12.18;;;5.15;;
75129;SDS011;63703;44.716;37.846;2023-02-01T00:34:04;11.60;;;5.57;;
75129;SDS011;63703;44.716;37.846;2023-02-01T00:36:30;13.98;;;6.30;;
75129;SDS011;63703;44.716;37.846;2023-02-01T00:38:56;8.82;;;4.22;;
75129;SDS011;63703;44.716;37.846;2023-02-01T00:41:22;11.52;;;5.20;;
75129;SDS011;63703;44.716;37.846;2023-02-01T00:43:49;9.65;;;4.50;;
75129;SDS011;63703;44.716;37.846;2023-02-01T00:46:16;9.43;;;5.28;;
75129;SDS011;63703;44.716;37.846;2023-02-01T00:48:44;9.90;;;5.10;;
75129;SDS011;63703;44.716;37.846;2023-02-01T00:51:15;7.63;;;4.43;;
75129;SDS011;63703;44.716;37.846;2023-02-01T00:53:42;11.10;;;5.13;;
75129;SDS011;63703;44.716;37.846;2023-02-01T00:56:08;6.75;;;3.75;;
75129;SDS011;63703;44.716;37.846;2023-02-01T00:58:34;11.90;;;4.93;;
75129;SDS011;63703;44.716;37.846;2023-02-01T01:03:45;6.60;;;3.78;;
75129;SDS011;63703;44.716;37.846;2023-02-01T01:06:17;7.13;;;3.65;;
75129;SDS011;63703;44.716;37.846;2023-02-01T01:08:46;9.48;;;5.35;;
75129;SDS011;63703;44.716;37.846;2023-02-01T01:11:14;14.32;;;5.32;;
75129;SDS011;63703;44.716;37.846;2023-02-01T01:13:42;10.63;;;4.85;;
75129;SDS011;63703;44.716;37.846;2023-02-01T01:16:09;10.50;;;4.95;;
75129;SDS011;63703;44.716;37.846;2023-02-01T01:18:36;8.80;;;4.97;;
75129;SDS011;63703;44.716;37.846;2023-02-01T01:21:03;12.80;;;5.10;;
75129;SDS011;63703;44.716;37.846;2023-02-01T01:23:30;9.23;;;3.88;;
75129;SDS011;63703;44.716;37.846;2023-02-01T01:25:57;7.85;;;4.28;;
75129;SDS011;63703;44.716;37.846;2023-02-01T01:28:23;8.82;;;6.05;;
75129;SDS011;63703;44.716;37.846;2023-02-01T01:30:49;6.35;;;2.95;;
75129;SDS011;63703;44.716;37.846;2023-02-01T01:33:15;6.28;;;3.75;;
75129;SDS011;63703;44.716;37.846;2023-02-01T01:35:41;6.25;;;3.55;;
75129;SDS011;63703;44.716;37.846;2023-02-01T01:38:08;4.68;;;3.10;;
75129;SDS011;63703;44.716;37.846;2023-02-01T01:40:36;7.05;;;4.22;;
75129;SDS011;63703;44.716;37.846;2023-02-01T01:43:02;3.80;;;2.35;;
75129;SDS011;63703;44.716;37.846;2023-02-01T01:45:29;6.00;;;2.95;;
75129;SDS011;63703;44.716;37.846;2023-02-01T01:48:04;8.30;;;4.03;;
75129;SDS011;63703;44.716;37.846;2023-02-01T01:50:39;4.13;;;2.25;;
75129;SDS011;63703;44.716;37.846;2023-02-01T01:53:12;4.03;;;2.20;;
75129;SDS011;63703;44.716;37.846;2023-02-01T01:55:42;4.22;;;2.45;;
75129;SDS011;63703;44.716;37.846;2023-02-01T01:58:12;3.47;;;1.92;;
75129;SDS011;63703;44.716;37.846;2023-02-01T02:00:41;6.68;;;2.50;;
75129;SDS011;63703;44.716;37.846;2023-02-01T02:03:12;5.15;;;3.35;;
75129;SDS011;63703;44.716;37.846;2023-02-01T02:05:43;6.00;;;3.03;;
75129;SDS011;63703;44.716;37.846;2023-02-01T02:08:10;5.40;;;3.10;;
75129;SDS011;63703;44.716;37.846;2023-02-01T02:10:37;5.82;;;4.15;;
75129;SDS011;63703;44.716;37.846;2023-02-01T02:13:21;4.75;;;3.17;;
75129;SDS011;63703;44.716;37.846;2023-02-01T02:16:04;9.45;;;3.85;;
75129;SDS011;63703;44.716;37.846;2023-02-01T02:26:47;9.52;;;5.15;;
75129;SDS011;63703;44.716;37.846;2023-02-01T02:38:05;6.00;;;3.47;;
75129;SDS011;63703;44.716;37.846;2023-02-01T02:44:15;8.20;;;4.63;;
75129;SDS011;63703;44.716;37.846;2023-02-01T02:47:10;7.80;;;4.03;;
75129;SDS011;63703;44.716;37.846;2023-02-01T02:49:52;8.48;;;3.95;;
75129;SDS011;63703;44.716;37.846;2023-02-01T02:53:02;9.43;;;3.67;;
75129;SDS011;63703;44.716;37.846;2023-02-01T02:55:54;5.03;;;2.90;;
75129;SDS011;63703;44.716;37.846;2023-02-01T02:58:40;7.30;;;3.85;;
75129;SDS011;63703;44.716;37.846;2023-02-01T03:01:27;6.97;;;3.47;;
75129;SDS011;63703;44.716;37.846;2023-02-01T03:04:12;5.63;;;3.05;;
75129;SDS011;63703;44.716;37.846;2023-02-01T03:06:45;7.07;;;3.30;;
75129;SDS011;63703;44.716;37.846;2023-02-01T03:09:31;6.35;;;3.60;;
75129;SDS011;63703;44.716;37.846;2023-02-01T03:12:02;4.85;;;2.40;;
75129;SDS011;63703;44.716;37.846;2023-02-01T03:14:53;4.38;;;3.28;;
75129;SDS011;63703;44.716;37.846;2023-02-01T03:17:27;2.95;;;2.15;;
75129;SDS011;63703;44.716;37.846;2023-02-01T03:19:58;8.77;;;4.93;;
75129;SDS011;63703;44.716;37.846;2023-02-01T03:22:28;11.75;;;3.28;;
75129;SDS011;63703;44.716;37.846;2023-02-01T03:25:30;4.72;;;2.67;;
75129;SDS011;63703;44.716;37.846;2023-02-01T03:27:59;9.50;;;3.60;;
75129;SDS011;63703;44.716;37.846;2023-02-01T03:30:39;7.63;;;3.42;;
75129;SDS011;63703;44.716;37.846;2023-02-01T03:33:09;7.72;;;3.35;;
75129;SDS011;63703;44.716;37.846;2023-02-01T03:44:21;6.60;;;4.20;;
75129;SDS011;63703;44.716;37.846;2023-02-01T03:47:13;4.90;;;3.38;;
75129;SDS011;63703;44.716;37.846;2023-02-01T03:49:49;5.20;;;2.53;;
75129;SDS011;63703;44.716;37.846;2023-02-01T03:52:28;4.50;;;2.05;;
75129;SDS011;63703;44.716;37.846;2023-02-01T03:54:57;4.00;;;1.77;;
75129;SDS011;63703;44.716;37.846;2023-02-01T03:57:26;5.45;;;3.20;;
75129;SDS011;63703;44.716;37.846;2023-02-01T04:00:03;11.23;;;3.45;;
75129;SDS011;63703;44.716;37.846;2023-02-01T04:02:39;8.00;;;4.30;;
75129;SDS011;63703;44.716;37.846;2023-02-01T04:05:05;9.95;;;3.75;;
75129;SDS011;63703;44.716;37.846;2023-02-01T04:07:32;8.75;;;3.63;;
75129;SDS011;63703;44.716;37.846;2023-02-01T04:09:57;7.97;;;3.25;;
75129;SDS011;63703;44.716;37.846;2023-02-01T04:12:23;8.05;;;3.80;;
75129;SDS011;63703;44.716;37.846;2023-02-01T04:14:49;6.47;;;2.28;;
75129;SDS011;63703;44.716;37.846;2023-02-01T04:17:15;4.93;;;2.83;;
75129;SDS011;63703;44.716;37.846;2023-02-01T04:19:41;6.43;;;2.95;;
75129;SDS011;63703;44.716;37.846;2023-02-01T04:22:07;8.85;;;2.45;;
75129;SDS011;63703;44.716;37.846;2023-02-01T04:24:33;11.77;;;3.55;;
75129;SDS011;63703;44.716;37.846;2023-02-01T04:26:59;7.60;;;2.30;;
75129;SDS011;63703;44.716;37.846;2023-02-01T04:29:25;9.02;;;3.53;;
75129;SDS011;63703;44.716;37.846;2023-02-01T04:31:51;4.22;;;2.08;;
75129;SDS011;63703;44.716;37.846;2023-02-01T04:34:17;7.90;;;3.65;;
75129;SDS011;63703;44.716;37.846;2023-02-01T04:36:43;7.00;;;2.47;;
75129;SDS011;63703;44.716;37.846;2023-02-01T04:39:09;7.80;;;2.22;;
75129;SDS011;63703;44.716;37.846;2023-02-01T04:41:35;4.35;;;2.30;;
75129;SDS011;63703;44.716;37.846;2023-02-01T04:44:01;6.28;;;3.28;;
75129;SDS011;63703;44.716;37.846;2023-02-01T04:46:27;8.98;;;3.38;;
75129;SDS011;63703;44.716;37.846;2023-02-01T04:48:53;7.47;;;3.42;;
75129;SDS011;63703;44.716;37.846;2023-02-01T04:51:19;6.55;;;2.60;;
75129;SDS011;63703;44.716;37.846;2023-02-01T04:53:45;8.20;;;2.92;;
75129;SDS011;63703;44.716;37.846;2023-02-01T04:56:11;7.85;;;2.72;;
75129;SDS011;63703;44.716;37.846;2023-02-01T04:58:37;4.63;;;2.47;;
75129;SDS011;63703;44.716;37.846;2023-02-01T05:01:03;5.80;;;3.17;;
75129;SDS011;63703;44.716;37.846;2023-02-01T05:03:30;3.95;;;1.77;;
75129;SDS011;63703;44.716;37.846;2023-02-01T05:05:57;3.78;;;3.17;;
75129;SDS011;63703;44.716;37.846;2023-02-01T05:08:23;3.13;;;1.40;;
75129;SDS011;63703;44.716;37.846;2023-02-01T05:10:50;3.22;;;1.98;;
75129;SDS011;63703;44.716;37.846;2023-02-01T05:13:16;3.08;;;2.28;;
75129;SDS011;63703;44.716;37.846;2023-02-01T05:16:00;3.70;;;1.80;;
75129;SDS011;63703;44.716;37.846;2023-02-01T05:18:26;3.08;;;2.00;;
75129;SDS011;63703;44.716;37.846;2023-02-01T05:20:52;4.05;;;2.17;;
75129;SDS011;63703;44.716;37.846;2023-02-01T05:23:18;4.57;;;2.92;;
75129;SDS011;63703;44.716;37.846;2023-02-01T05:25:44;11.70;;;2.72;;
75129;SDS011;63703;44.716;37.846;2023-02-01T05:28:10;9.38;;;3.05;;
75129;SDS011;63703;44.716;37.846;2023-02-01T05:30:36;8.75;;;2.13;;
75129;SDS011;63703;44.716;37.846;2023-02-01T05:33:02;7.30;;;2.75;;
75129;SDS011;63703;44.716;37.846;2023-02-01T05:35:29;6.55;;;2.58;;
75129;SDS011;63703;44.716;37.846;2023-02-01T05:37:55;6.25;;;3.10;;
75129;SDS011;63703;44.716;37.846;2023-02-01T05:40:21;5.13;;;2.63;;
75129;SDS011;63703;44.716;37.846;2023-02-01T05:42:47;7.20;;;2.88;;
75129;SDS011;63703;44.716;37.846;2023-02-01T05:45:13;4.93;;;2.75;;
75129;SDS011;63703;44.716;37.846;2023-02-01T05:47:39;6.00;;;2.75;;
75129;SDS011;63703;44.716;37.846;2023-02-01T05:50:05;13.15;;;3.70;;
75129;SDS011;63703;44.716;37.846;2023-02-01T05:52:32;14.07;;;5.47;;
75129;SDS011;63703;44.716;37.846;2023-02-01T05:54:58;11.75;;;5.72;;
75129;SDS011;63703;44.716;37.846;2023-02-01T05:57:24;6.30;;;4.90;;
75129;SDS011;63703;44.716;37.846;2023-02-01T05:59:50;7.28;;;2.00;;
75129;SDS011;63703;44.716;37.846;2023-02-01T06:02:16;4.07;;;2.28;;
75129;SDS011;63703;44.716;37.846;2023-02-01T06:04:42;6.60;;;3.33;;
75129;SDS011;63703;44.716;37.846;2023-02-01T06:07:08;8.20;;;3.33;;
75129;SDS011;63703;44.716;37.846;2023-02-01T06:09:36;14.65;;;6.22;;
75129;SDS011;63703;44.716;37.846;2023-02-01T06:12:02;18.00;;;5.53;;
75129;SDS011;63703;44.716;37.846;2023-02-01T06:14:29;13.02;;;4.97;;
75129;SDS011;63703;44.716;37.846;2023-02-01T06:16:55;9.73;;;5.68;;
75129;SDS011;63703;44.716;37.846;2023-02-01T06:19:21;14.23;;;4.95;;
75129;SDS011;63703;44.716;37.846;2023-02-01T06:21:48;9.30;;;3.58;;
75129;SDS011;63703;44.716;37.846;2023-02-01T06:24:14;5.55;;;3.30;;
75129;SDS011;63703;44.716;37.846;2023-02-01T06:26:40;4.90;;;2.47;;
75129;SDS011;63703;44.716;37.846;2023-02-01T06:29:06;6.18;;;3.58;;
75129;SDS011;63703;44.716;37.846;2023-02-01T06:31:34;11.40;;;5.43;;
75129;SDS011;63703;44.716;37.846;2023-02-01T06:34:00;15.80;;;6.15;;
75129;SDS011;63703;44.716;37.846;2023-02-01T06:36:28;17.77;;;5.93;;
75129;SDS011;63703;44.716;37.846;2023-02-01T06:38:57;10.10;;;4.18;;
75129;SDS011;63703;44.716;37.846;2023-02-01T06:41:25;4.82;;;2.00;;
75129;SDS011;63703;44.716;37.846;2023-02-01T06:43:51;5.72;;;2.85;;
75129;SDS011;63703;44.716;37.846;2023-02-01T06:46:17;4.18;;;2.17;;
75129;SDS011;63703;44.716;37.846;2023-02-01T06:48:44;4.40;;;2.10;;
75129;SDS011;63703;44.716;37.846;2023-02-01T06:51:24;4.10;;;2.58;;
75129;SDS011;63703;44.716;37.846;2023-02-01T06:53:52;3.40;;;2.08;;
75129;SDS011;63703;44.716;37.846;2023-02-01T06:56:18;4.97;;;2.72;;
75129;SDS011;63703;44.716;37.846;2023-02-01T06:58:44;3.47;;;1.95;;
75129;SDS011;63703;44.716;37.846;2023-02-01T07:01:10;5.00;;;2.92;;
75129;SDS011;63703;44.716;37.846;2023-02-01T07:03:37;3.70;;;2.80;;
75129;SDS011;63703;44.716;37.846;2023-02-01T07:06:03;3.35;;;1.60;;
75129;SDS011;63703;44.716;37.846;2023-02-01T07:08:31;3.80;;;1.77;;
75129;SDS011;63703;44.716;37.846;2023-02-01T07:11:08;3.78;;;2.35;;
75129;SDS011;63703;44.716;37.846;2023-02-01T07:13:36;4.95;;;2.83;;
75129;SDS011;63703;44.716;37.846;2023-02-01T07:16:03;4.95;;;2.78;;
75129;SDS011;63703;44.716;37.846;2023-02-01T07:18:31;3.35;;;1.60;;
75129;SDS011;63703;44.716;37.846;2023-02-01T07:20:58;4.25;;;2.28;;
75129;SDS011;63703;44.716;37.846;2023-02-01T07:23:25;4.75;;;2.13;;
75129;SDS011;63703;44.716;37.846;2023-02-01T07:25:59;3.63;;;1.88;;
75129;SDS011;63703;44.716;37.846;2023-02-01T07:28:29;4.75;;;1.73;;
75129;SDS011;63703;44.716;37.846;2023-02-01T07:31:07;3.75;;;2.38;;
75129;SDS011;63703;44.716;37.846;2023-02-01T07:33:35;5.20;;;1.92;;
75129;SDS011;63703;44.716;37.846;2023-02-01T07:36:02;12.43;;;2.35;;
75129;SDS011;63703;44.716;37.846;2023-02-01T07:38:30;4.53;;;2.92;;
75129;SDS011;63703;44.716;37.846;2023-02-01T07:40:59;4.18;;;2.35;;
75129;SDS011;63703;44.716;37.846;2023-02-01T07:45:53;3.97;;;1.95;;
75129;SDS011;63703;44.716;37.846;2023-02-01T07:48:21;3.80;;;1.73;;
75129;SDS011;63703;44.716;37.846;2023-02-01T07:50:47;4.82;;;1.83;;
75129;SDS011;63703;44.716;37.846;2023-02-01T07:53:14;5.18;;;1.70;;
75129;SDS011;63703;44.716;37.846;2023-02-01T07:55:40;3.40;;;1.60;;
75129;SDS011;63703;44.716;37.846;2023-02-01T07:58:06;4.03;;;2.22;;
75129;SDS011;63703;44.716;37.846;2023-02-01T08:00:32;4.35;;;2.47;;
75129;SDS011;63703;44.716;37.846;2023-02-01T08:03:17;4.03;;;2.05;;
75129;SDS011;63703;44.716;37.846;2023-02-01T08:05:43;9.63;;;3.35;;
75129;SDS011;63703;44.716;37.846;2023-02-01T08:08:08;3.55;;;1.58;;
75129;SDS011;63703;44.716;37.846;2023-02-01T08:10:35;3.63;;;1.52;;
75129;SDS011;63703;44.716;37.846;2023-02-01T08:13:02;4.30;;;1.77;;
75129;SDS011;63703;44.716;37.846;2023-02-01T08:15:28;6.32;;;1.75;;
75129;SDS011;63703;44.716;37.846;2023-02-01T08:17:55;4.60;;;1.75;;
75129;SDS011;63703;44.716;37.846;2023-02-01T08:20:21;7.65;;;2.42;;
75129;SDS011;63703;44.716;37.846;2023-02-01T08:22:49;5.57;;;2.55;;
75129;SDS011;63703;44.716;37.846;2023-02-01T08:25:15;4.05;;;2.97;;
75129;SDS011;63703;44.716;37.846;2023-02-01T08:27:42;4.03;;;1.77;;
75129;SDS011;63703;44.716;37.846;2023-02-01T08:30:08;4.13;;;2.03;;
75129;SDS011;63703;44.716;37.846;2023-02-01T08:32:35;5.43;;;2.72;;
75129;SDS011;63703;44.716;37.846;2023-02-01T08:35:01;3.95;;;1.25;;
75129;SDS011;63703;44.716;37.846;2023-02-01T08:37:28;3.85;;;2.00;;
75129;SDS011;63703;44.716;37.846;2023-02-01T08:39:54;4.45;;;1.88;;
75129;SDS011;63703;44.716;37.846;2023-02-01T08:42:20;4.45;;;2.25;;
75129;SDS011;63703;44.716;37.846;2023-02-01T08:45:05;4.47;;;1.63;;
75129;SDS011;63703;44.716;37.846;2023-02-01T08:47:33;3.67;;;1.95;;
75129;SDS011;63703;44.716;37.846;2023-02-01T08:49:59;5.05;;;1.65;;
75129;SDS011;63703;44.716;37.846;2023-02-01T08:52:25;4.32;;;2.55;;
75129;SDS011;63703;44.716;37.846;2023-02-01T08:54:52;4.30;;;2.30;;
75129;SDS011;63703;44.716;37.846;2023-02-01T08:57:18;5.88;;;2.97;;
75129;SDS011;63703;44.716;37.846;2023-02-01T08:59:44;3.35;;;1.20;;
75129;SDS011;63703;44.716;37.846;2023-02-01T09:02:13;6.25;;;2.20;;
75129;SDS011;63703;44.716;37.846;2023-02-01T09:04:41;4.05;;;1.95;;
75129;SDS011;63703;44.716;37.846;2023-02-01T09:07:10;4.53;;;2.00;;
75129;SDS011;63703;44.716;37.846;2023-02-01T09:09:36;4.05;;;2.22;;
75129;SDS011;63703;44.716;37.846;2023-02-01T09:12:02;3.35;;;1.77;;
75129;SDS011;63703;44.716;37.846;2023-02-01T09:14:28;3.38;;;1.90;;
75129;SDS011;63703;44.716;37.846;2023-02-01T09:16:55;5.05;;;2.28;;
75129;SDS011;63703;44.716;37.846;2023-02-01T09:19:20;3.97;;;2.42;;
75129;SDS011;63703;44.716;37.846;2023-02-01T09:21:46;3.88;;;1.13;;
75129;SDS011;63703;44.716;37.846;2023-02-01T09:24:13;3.50;;;1.80;;
75129;SDS011;63703;44.716;37.846;2023-02-01T09:26:39;5.03;;;1.77;;
75129;SDS011;63703;44.716;37.846;2023-02-01T09:29:05;3.72;;;2.20;;
75129;SDS011;63703;44.716;37.846;2023-02-01T09:31:38;3.97;;;1.73;;
75129;SDS011;63703;44.716;37.846;2023-02-01T09:34:05;3.30;;;1.33;;
75129;SDS011;63703;44.716;37.846;2023-02-01T09:36:32;5.13;;;1.92;;
75129;SDS011;63703;44.716;37.846;2023-02-01T09:38:58;5.05;;;1.75;;
75129;SDS011;63703;44.716;37.846;2023-02-01T09:46:38;3.42;;;1.90;;
75129;SDS011;63703;44.716;37.846;2023-02-01T09:49:12;3.53;;;1.30;;
75129;SDS011;63703;44.716;37.846;2023-02-01T09:51:43;4.28;;;1.73;;
75129;SDS011;63703;44.716;37.846;2023-02-01T09:54:13;5.18;;;1.88;;
75129;SDS011;63703;44.716;37.846;2023-02-01T09:56:49;4.43;;;1.98;;
75129;SDS011;63703;44.716;37.846;2023-02-01T09:59:43;4.55;;;0.93;;
75129;SDS011;63703;44.716;37.846;2023-02-01T10:02:23;3.15;;;1.83;;
75129;SDS011;63703;44.716;37.846;2023-02-01T10:04:53;4.50;;;1.80;;
75129;SDS011;63703;44.716;37.846;2023-02-01T10:07:37;3.35;;;1.73;;
75129;SDS011;63703;44.716;37.846;2023-02-01T10:13:38;4.47;;;1.08;;
75129;SDS011;63703;44.716;37.846;2023-02-01T10:17:03;2.95;;;1.38;;
75129;SDS011;63703;44.716;37.846;2023-02-01T10:21:57;3.75;;;2.42;;
75129;SDS011;63703;44.716;37.846;2023-02-01T10:27:22;3.85;;;1.98;;
75129;SDS011;63703;44.716;37.846;2023-02-01T10:29:55;4.78;;;1.83;;
75129;SDS011;63703;44.716;37.846;2023-02-01T10:32:29;3.17;;;1.42;;
75129;SDS011;63703;44.716;37.846;2023-02-01T10:34:58;3.33;;;0.82;;
75129;SDS011;63703;44.716;37.846;2023-02-01T10:37:30;3.80;;;1.63;;
75129;SDS011;63703;44.716;37.846;2023-02-01T10:40:17;3.15;;;1.58;;
75129;SDS011;63703;44.716;37.846;2023-02-01T10:42:51;3.60;;;2.35;;
75129;SDS011;63703;44.716;37.846;2023-02-01T10:45:20;3.63;;;1.23;;
75129;SDS011;63703;44.716;37.846;2023-02-01T10:47:49;3.03;;;1.38;;
75129;SDS011;63703;44.716;37.846;2023-02-01T10:53:21;4.82;;;2.28;;
75129;SDS011;63703;44.716;37.846;2023-02-01T10:55:53;3.25;;;1.00;;
75129;SDS011;63703;44.716;37.846;2023-02-01T10:58:30;4.65;;;1.13;;
75129;SDS011;63703;44.716;37.846;2023-02-01T11:01:00;3.05;;;0.80;;
75129;SDS011;63703;44.716;37.846;2023-02-01T11:03:40;4.88;;;1.55;;
75129;SDS011;63703;44.716;37.846;2023-02-01T11:06:29;3.72;;;1.33;;
75129;SDS011;63703;44.716;37.846;2023-02-01T11:08:56;2.85;;;1.23;;
75129;SDS011;63703;44.716;37.846;2023-02-01T11:11:25;4.15;;;1.17;;
75129;SDS011;63703;44.716;37.846;2023-02-01T11:13:56;3.08;;;1.33;;
75129;SDS011;63703;44.716;37.846;2023-02-01T11:16:39;2.42;;;1.02;;
75129;SDS011;63703;44.716;37.846;2023-02-01T11:19:05;2.55;;;1.50;;
75129;SDS011;63703;44.716;37.846;2023-02-01T11:21:32;2.95;;;1.20;;
75129;SDS011;63703;44.716;37.846;2023-02-01T11:24:03;2.45;;;1.48;;
75129;SDS011;63703;44.716;37.846;2023-02-01T11:26:30;2.08;;;0.95;;
75129;SDS011;63703;44.716;37.846;2023-02-01T11:31:30;2.35;;;1.33;;
75129;SDS011;63703;44.716;37.846;2023-02-01T11:33:59;4.60;;;0.95;;
75129;SDS011;63703;44.716;37.846;2023-02-01T11:36:33;2.33;;;0.95;;
75129;SDS011;63703;44.716;37.846;2023-02-01T11:39:08;2.63;;;1.48;;
75129;SDS011;63703;44.716;37.846;2023-02-01T11:42:12;3.60;;;0.93;;
75129;SDS011;63703;44.716;37.846;2023-02-01T11:44:39;4.78;;;2.35;;
75129;SDS011;63703;44.716;37.846;2023-02-01T11:49:53;2.38;;;0.93;;
75129;SDS011;63703;44.716;37.846;2023-02-01T11:52:30;4.05;;;1.35;;
75129;SDS011;63703;44.716;37.846;2023-02-01T11:58:06;3.72;;;1.10;;
75129;SDS011;63703;44.716;37.846;2023-02-01T12:09:34;2.78;;;1.85;;
75129;SDS011;63703;44.716;37.846;2023-02-01T12:20:42;2.42;;;1.23;;
75129;SDS011;63703;44.716;37.846;2023-02-01T12:26:11;2.53;;;1.33;;
75129;SDS011;63703;44.716;37.846;2023-02-01T12:40:03;12.82;;;5.80;;
75129;SDS011;63703;44.716;37.846;2023-02-01T12:43:01;10.35;;;5.28;;
75129;SDS011;63703;44.716;37.846;2023-02-01T12:45:38;16.52;;;5.57;;
75129;SDS011;63703;44.716;37.846;2023-02-01T12:48:16;9.70;;;4.38;;
75129;SDS011;63703;44.716;37.846;2023-02-01T12:50:56;12.82;;;4.40;;
75129;SDS011;63703;44.716;37.846;2023-02-01T12:53:26;12.00;;;5.35;;
75129;SDS011;63703;44.716;37.846;2023-02-01T12:56:00;12.63;;;5.32;;
75129;SDS011;63703;44.716;37.846;2023-02-01T13:06:41;14.38;;;7.43;;
75129;SDS011;63703;44.716;37.846;2023-02-01T13:09:20;15.30;;;6.28;;
75129;SDS011;63703;44.716;37.846;2023-02-01T13:11:52;19.45;;;9.15;;
75129;SDS011;63703;44.716;37.846;2023-02-01T13:14:41;18.23;;;8.05;;
75129;SDS011;63703;44.716;37.846;2023-02-01T13:17:34;15.30;;;8.05;;
75129;SDS011;63703;44.716;37.846;2023-02-01T13:22:37;18.85;;;6.93;;
75129;SDS011;63703;44.716;37.846;2023-02-01T13:27:47;20.98;;;7.70;;
75129;SDS011;63703;44.716;37.846;2023-02-01T13:30:21;17.20;;;8.15;;
75129;SDS011;63703;44.716;37.846;2023-02-01T13:43:58;18.88;;;8.20;;
75129;SDS011;63703;44.716;37.846;2023-02-01T13:46:38;29.52;;;8.75;;
75129;SDS011;63703;44.716;37.846;2023-02-01T13:51:53;20.08;;;7.50;;
75129;SDS011;63703;44.716;37.846;2023-02-01T13:54:31;16.77;;;8.30;;
75129;SDS011;63703;44.716;37.846;2023-02-01T13:57:02;18.23;;;8.43;;
75129;SDS011;63703;44.716;37.846;2023-02-01T13:59:44;21.77;;;8.95;;
75129;SDS011;63703;44.716;37.846;2023-02-01T14:05:10;26.65;;;7.93;;
75129;SDS011;63703;44.716;37.846;2023-02-01T14:09:09;17.63;;;6.93;;
75129;SDS011;63703;44.716;37.846;2023-02-01T14:10:55;15.98;;;7.05;;
75129;SDS011;63703;44.716;37.846;2023-02-01T14:24:04;25.13;;;9.57;;
75129;SDS011;63703;44.716;37.846;2023-02-01T14:44:47;23.30;;;8.43;;
75129;SDS011;63703;44.716;37.846;2023-02-01T14:52:22;23.48;;;10.00;;
75129;SDS011;63703;44.716;37.846;2023-02-01T14:54:55;25.20;;;9.93;;
75129;SDS011;63703;44.716;37.846;2023-02-01T14:57:26;21.17;;;9.13;;
75129;SDS011;63703;44.716;37.846;2023-02-01T14:59:58;21.70;;;10.73;;
75129;SDS011;63703;44.716;37.846;2023-02-01T15:04:59;15.88;;;8.45;;
75129;SDS011;63703;44.716;37.846;2023-02-01T15:07:25;21.75;;;9.13;;
75129;SDS011;63703;44.716;37.846;2023-02-01T15:09:52;24.90;;;9.23;;
75129;SDS011;63703;44.716;37.846;2023-02-01T15:12:24;37.60;;;10.43;;
75129;SDS011;63703;44.716;37.846;2023-02-01T15:17:55;30.90;;;9.10;;
75129;SDS011;63703;44.716;37.846;2023-02-01T15:20:28;22.70;;;9.23;;
75129;SDS011;63703;44.716;37.846;2023-02-01T15:22:57;18.55;;;8.32;;
75129;SDS011;63703;44.716;37.846;2023-02-01T15:25:26;20.00;;;9.13;;
75129;SDS011;63703;44.716;37.846;2023-02-01T15:27:53;21.92;;;10.75;;
75129;SDS011;63703;44.716;37.846;2023-02-01T15:30:21;28.13;;;11.80;;
75129;SDS011;63703;44.716;37.846;2023-02-01T15:33:02;26.90;;;9.35;;
75129;SDS011;63703;44.716;37.846;2023-02-01T15:35:40;23.23;;;12.68;;
75129;SDS011;63703;44.716;37.846;2023-02-01T15:40:56;21.90;;;8.68;;
75129;SDS011;63703;44.716;37.846;2023-02-01T15:43:31;23.67;;;9.50;;
75129;SDS011;63703;44.716;37.846;2023-02-01T15:46:11;23.85;;;10.27;;
75129;SDS011;63703;44.716;37.846;2023-02-01T15:48:44;26.85;;;10.38;;
75129;SDS011;63703;44.716;37.846;2023-02-01T15:51:14;24.27;;;9.93;;
75129;SDS011;63703;44.716;37.846;2023-02-01T15:53:47;20.77;;;9.38;;
75129;SDS011;63703;44.716;37.846;2023-02-01T15:56:20;20.65;;;9.40;;
75129;SDS011;63703;44.716;37.846;2023-02-01T15:58:49;24.52;;;9.75;;
75129;SDS011;63703;44.716;37.846;2023-02-01T16:01:18;19.40;;;9.95;;
75129;SDS011;63703;44.716;37.846;2023-02-01T16:03:45;24.20;;;9.13;;
75129;SDS011;63703;44.716;37.846;2023-02-01T16:11:51;22.63;;;9.27;;
75129;SDS011;63703;44.716;37.846;2023-02-01T16:14:24;14.13;;;7.40;;
75129;SDS011;63703;44.716;37.846;2023-02-01T16:16:51;21.70;;;10.00;;
75129;SDS011;63703;44.716;37.846;2023-02-01T16:19:19;22.58;;;9.63;;
75129;SDS011;63703;44.716;37.846;2023-02-01T16:21:46;22.98;;;9.43;;
75129;SDS011;63703;44.716;37.846;2023-02-01T16:24:12;18.52;;;10.35;;
75129;SDS011;63703;44.716;37.846;2023-02-01T16:26:38;25.48;;;10.23;;
75129;SDS011;63703;44.716;37.846;2023-02-01T16:29:04;28.65;;;12.30;;
75129;SDS011;63703;44.716;37.846;2023-02-01T16:31:33;18.40;;;9.00;;
75129;SDS011;63703;44.716;37.846;2023-02-01T16:34:02;27.77;;;11.70;;
75129;SDS011;63703;44.716;37.846;2023-02-01T16:36:29;33.17;;;12.52;;
75129;SDS011;63703;44.716;37.846;2023-02-01T16:38:55;23.00;;;9.95;;
75129;SDS011;63703;44.716;37.846;2023-02-01T16:41:21;26.85;;;13.32;;
75129;SDS011;63703;44.716;37.846;2023-02-01T16:43:52;28.85;;;12.40;;
75129;SDS011;63703;44.716;37.846;2023-02-01T16:46:20;25.45;;;11.13;;
75129;SDS011;63703;44.716;37.846;2023-02-01T16:48:54;24.40;;;10.25;;
75129;SDS011;63703;44.716;37.846;2023-02-01T16:51:21;26.55;;;10.13;;
75129;SDS011;63703;44.716;37.846;2023-02-01T16:53:48;19.23;;;10.45;;
75129;SDS011;63703;44.716;37.846;2023-02-01T16:56:19;22.30;;;11.63;;
75129;SDS011;63703;44.716;37.846;2023-02-01T16:58:48;25.52;;;10.93;;
75129;SDS011;63703;44.716;37.846;2023-02-01T17:01:15;19.10;;;9.50;;
75129;SDS011;63703;44.716;37.846;2023-02-01T17:03:43;24.02;;;10.13;;
75129;SDS011;63703;44.716;37.846;2023-02-01T17:06:11;24.17;;;10.80;;
75129;SDS011;63703;44.716;37.846;2023-02-01T17:08:44;30.65;;;10.73;;
75129;SDS011;63703;44.716;37.846;2023-02-01T17:11:12;23.80;;;10.48;;
75129;SDS011;63703;44.716;37.846;2023-02-01T17:13:38;21.33;;;10.32;;
75129;SDS011;63703;44.716;37.846;2023-02-01T17:16:21;25.98;;;10.80;;
75129;SDS011;63703;44.716;37.846;2023-02-01T17:18:58;23.10;;;10.73;;
75129;SDS011;63703;44.716;37.846;2023-02-01T17:21:27;22.70;;;10.68;;
75129;SDS011;63703;44.716;37.846;2023-02-01T17:23:55;23.98;;;10.52;;
75129;SDS011;63703;44.716;37.846;2023-02-01T17:26:24;21.58;;;10.38;;
75129;SDS011;63703;44.716;37.846;2023-02-01T17:28:50;39.85;;;10.30;;
75129;SDS011;63703;44.716;37.846;2023-02-01T17:31:16;27.17;;;10.77;;
75129;SDS011;63703;44.716;37.846;2023-02-01T17:33:42;23.70;;;10.38;;
75129;SDS011;63703;44.716;37.846;2023-02-01T17:36:13;14.20;;;6.90;;
75129;SDS011;63703;44.716;37.846;2023-02-01T17:38:41;19.45;;;9.45;;